sensor_id;sensor_type;location;lat;lon;timestamp;pressure;altitude;pressure_sealevel;temperature;humidity
8298;BME280;4187;42.778;23.242;2022-12-19T00:01:10;97045.34;;;0.83;100.00
8298;BME280;4187;42.778;23.242;2022-12-19T00:03:41;97047.88;;;0.84;100.00
8298;BME280;4187;42.778;23.242;2022-12-19T00:06:08;97036.84;;;0.76;100.00
8298;BME280;4187;42.778;23.242;2022-12-19T00:08:35;97045.50;;;0.77;100.00
8298;BME280;4187;42.778;23.242;2022-12-19T00:11:02;97054.09;;;0.80;100.00
8298;BME280;4187;42.778;23.242;2022-12-19T00:13:30;97041.94;;;0.81;100.00
8298;BME280;4187;42.778;23.242;2022-12-19T00:16:00;97042.59;;;0.87;100.00
8298;BME280;4187;42.778;23.242;2022-12-19T00:18:28;97057.22;;;0.91;100.00
8298;BME280;4187;42.778;23.242;2022-12-19T00:20:56;97053.84;;;0.88;100.00
8298;BME280;4187;42.778;23.242;2022-12-19T00:23:24;97055.53;;;0.90;100.00
8298;BME280;4187;42.778;23.242;2022-12-19T00:25:51;97028.97;;;0.79;100.00
8298;BME280;4187;42.778;23.242;2022-12-19T00:28:18;97064.03;;;0.95;100.00
8298;BME280;4187;42.778;23.242;2022-12-19T00:30:45;97047.06;;;0.84;100.00
8298;BME280;4187;42.778;23.242;2022-12-19T00:33:12;97067.47;;;0.97;100.00
8298;BME280;4187;42.778;23.242;2022-12-19T00:35:40;97059.59;;;0.99;100.00
8298;BME280;4187;42.778;23.242;2022-12-19T00:38:07;97065.75;;;0.96;100.00
8298;BME280;4187;42.778;23.242;2022-12-19T00:40:34;97074.34;;;0.98;100.00
8298;BME280;4187;42.778;23.242;2022-12-19T00:43:00;97057.19;;;0.93;100.00
8298;BME280;4187;42.778;23.242;2022-12-19T00:45:27;97075.97;;;1.02;100.00
8298;BME280;4187;42.778;23.242;2022-12-19T00:47:54;97079.38;;;1.04;100.00
8298;BME280;4187;42.778;23.242;2022-12-19T00:50:21;97079.53;;;1.00;100.00
8298;BME280;4187;42.778;23.242;2022-12-19T00:52:49;97075.06;;;1.03;100.00
8298;BME280;4187;42.778;23.242;2022-12-19T00:55:16;97071.50;;;1.07;100.00
8298;BME280;4187;42.778;23.242;2022-12-19T00:57:43;97072.28;;;1.09;100.00
8298;BME280;4187;42.778;23.242;2022-12-19T01:00:10;97085.56;;;1.00;100.00
8298;BME280;4187;42.778;23.242;2022-12-19T01:02:37;97076.94;;;0.98;100.00
8298;BME280;4187;42.778;23.242;2022-12-19T01:05:05;97083.00;;;0.99;100.00
8298;BME280;4187;42.778;23.242;2022-12-19T01:07:32;97095.22;;;0.95;100.00
8298;BME280;4187;42.778;23.242;2022-12-19T01:10:00;97079.53;;;1.00;100.00
8298;BME280;4187;42.778;23.242;2022-12-19T01:12:27;97092.47;;;1.01;100.00
8298;BME280;4187;42.778;23.242;2022-12-19T01:15:12;97089.22;;;0.93;100.00
8298;BME280;4187;42.778;23.242;2022-12-19T01:17:39;97092.78;;;0.89;100.00
8298;BME280;4187;42.778;23.242;2022-12-19T01:20:07;97091.03;;;0.91;100.00
8298;BME280;4187;42.778;23.242;2022-12-19T01:22:34;97088.44;;;0.91;100.00
8298;BME280;4187;42.778;23.242;2022-12-19T01:25:03;97078.41;;;0.78;100.00
8298;BME280;4187;42.778;23.242;2022-12-19T01:27:30;97096.16;;;0.94;100.00
8298;BME280;4187;42.778;23.242;2022-12-19T01:29:57;97089.88;;;1.01;100.00
8298;BME280;4187;42.778;23.242;2022-12-19T01:32:24;97091.53;;;1.04;100.00
8298;BME280;4187;42.778;23.242;2022-12-19T01:34:50;97084.59;;;1.03;100.00
8298;BME280;4187;42.778;23.242;2022-12-19T01:37:18;97088.97;;;1.02;100.00
8298;BME280;4187;42.778;23.242;2022-12-19T01:39:45;97088.97;;;1.02;100.00
8298;BME280;4187;42.778;23.242;2022-12-19T01:42:18;97086.78;;;0.87;100.00
8298;BME280;4187;42.778;23.242;2022-12-19T01:45:22;97092.69;;;0.94;100.00
8298;BME280;4187;42.778;23.242;2022-12-19T01:47:53;97070.53;;;0.81;100.00
8298;BME280;4187;42.778;23.242;2022-12-19T01:50:25;97072.44;;;0.74;100.00
8298;BME280;4187;42.778;23.242;2022-12-19T01:52:53;97089.78;;;0.74;100.00
8298;BME280;4187;42.778;23.242;2022-12-19T01:55:20;97085.50;;;0.73;100.00
8298;BME280;4187;42.778;23.242;2022-12-19T01:57:49;97069.13;;;0.69;100.00
8298;BME280;4187;42.778;23.242;2022-12-19T02:00:17;97085.44;;;0.74;100.00
8298;BME280;4187;42.778;23.242;2022-12-19T02:02:47;97059.03;;;0.57;100.00
8298;BME280;4187;42.778;23.242;2022-12-19T02:05:15;97084.66;;;0.71;100.00
8298;BME280;4187;42.778;23.242;2022-12-19T02:07:43;97081.13;;;0.73;100.00
8298;BME280;4187;42.778;23.242;2022-12-19T02:10:10;97047.03;;;0.53;100.00
8298;BME280;4187;42.778;23.242;2022-12-19T02:12:39;97070.19;;;0.62;100.00
8298;BME280;4187;42.778;23.242;2022-12-19T02:15:10;97071.88;;;0.63;100.00
8298;BME280;4187;42.778;23.242;2022-12-19T02:17:48;97079.97;;;0.52;100.00
8298;BME280;4187;42.778;23.242;2022-12-19T02:23:32;97007.69;;;0.04;100.00
8298;BME280;4187;42.778;23.242;2022-12-19T02:26:25;97085.22;;;0.49;100.00
8298;BME280;4187;42.778;23.242;2022-12-19T02:29:14;97094.75;;;0.49;100.00
8298;BME280;4187;42.778;23.242;2022-12-19T02:31:51;97068.13;;;0.41;100.00
8298;BME280;4187;42.778;23.242;2022-12-19T02:34:24;97082.56;;;0.52;100.00
8298;BME280;4187;42.778;23.242;2022-12-19T02:36:58;97092.16;;;0.49;100.00
8298;BME280;4187;42.778;23.242;2022-12-19T02:39:30;97089.56;;;0.49;100.00
8298;BME280;4187;42.778;23.242;2022-12-19T02:42:01;97090.22;;;0.57;100.00
8298;BME280;4187;42.778;23.242;2022-12-19T02:44:32;97093.59;;;0.60;100.00
8298;BME280;4187;42.778;23.242;2022-12-19T02:47:03;97086.22;;;0.45;100.00
8298;BME280;4187;42.778;23.242;2022-12-19T02:49:32;97074.25;;;0.40;100.00
8298;BME280;4187;42.778;23.242;2022-12-19T02:52:08;97071.81;;;0.34;100.00
8298;BME280;4187;42.778;23.242;2022-12-19T02:54:35;97076.13;;;0.33;100.00
8298;BME280;4187;42.778;23.242;2022-12-19T02:57:08;97074.25;;;0.40;100.00
8298;BME280;4187;42.778;23.242;2022-12-19T02:59:47;97069.06;;;0.38;100.00
8298;BME280;4187;42.778;23.242;2022-12-19T03:02:26;97062.38;;;0.30;100.00
8298;BME280;4187;42.778;23.242;2022-12-19T03:04:58;97057.97;;;0.33;100.00
8298;BME280;4187;42.778;23.242;2022-12-19T03:07:32;97020.81;;;-0.03;100.00
8298;BME280;4187;42.778;23.242;2022-12-19T03:10:07;97063.56;;;0.18;100.00
8298;BME280;4187;42.778;23.242;2022-12-19T03:12:46;97079.09;;;0.20;100.00
8298;BME280;4187;42.778;23.242;2022-12-19T03:15:16;97067.97;;;0.15;100.00
8298;BME280;4187;42.778;23.242;2022-12-19T03:17:44;97080.88;;;0.18;100.00
8298;BME280;4187;42.778;23.242;2022-12-19T03:20:18;97094.78;;;0.15;100.00
8298;BME280;4187;42.778;23.242;2022-12-19T03:22:49;97055.38;;;-0.01;100.00
8298;BME280;4187;42.778;23.242;2022-12-19T03:25:17;97087.69;;;0.22;100.00
8298;BME280;4187;42.778;23.242;2022-12-19T03:27:46;97086.88;;;0.20;100.00
8298;BME280;4187;42.778;23.242;2022-12-19T03:30:15;97093.53;;;0.30;100.00
8298;BME280;4187;42.778;23.242;2022-12-19T03:32:45;97095.41;;;0.25;100.00
8298;BME280;4187;42.778;23.242;2022-12-19T03:35:16;97097.25;;;0.20;100.00
8298;BME280;4187;42.778;23.242;2022-12-19T03:37:45;97097.97;;;0.26;100.00
8298;BME280;4187;42.778;23.242;2022-12-19T03:40:15;97099.78;;;0.23;100.00
8298;BME280;4187;42.778;23.242;2022-12-19T03:42:44;97101.50;;;0.24;100.00
8298;BME280;4187;42.778;23.242;2022-12-19T03:45:32;97096.56;;;0.13;100.00
8298;BME280;4187;42.778;23.242;2022-12-19T03:48:07;97096.44;;;0.18;100.00
8298;BME280;4187;42.778;23.242;2022-12-19T03:50:42;97096.44;;;0.18;100.00
8298;BME280;4187;42.778;23.242;2022-12-19T03:53:23;97105.91;;;0.20;100.00
8298;BME280;4187;42.778;23.242;2022-12-19T03:55:59;97110.22;;;0.21;100.00
8298;BME280;4187;42.778;23.242;2022-12-19T03:58:32;97111.97;;;0.19;100.00
8298;BME280;4187;42.778;23.242;2022-12-19T04:01:00;97123.94;;;0.25;100.00
8298;BME280;4187;42.778;23.242;2022-12-19T04:03:30;97118.06;;;0.18;100.00
8298;BME280;4187;42.778;23.242;2022-12-19T04:05:59;97107.72;;;0.17;100.00
8298;BME280;4187;42.778;23.242;2022-12-19T04:08:29;97130.25;;;0.16;100.00
8298;BME280;4187;42.778;23.242;2022-12-19T04:11:02;97112.31;;;0.06;100.00
8298;BME280;4187;42.778;23.242;2022-12-19T04:13:34;97126.81;;;0.14;100.00
8298;BME280;4187;42.778;23.242;2022-12-19T04:16:09;97122.47;;;0.15;100.00
8298;BME280;4187;42.778;23.242;2022-12-19T04:18:42;97121.53;;;0.19;100.00
8298;BME280;4187;42.778;23.242;2022-12-19T04:21:14;97123.22;;;0.20;100.00
8298;BME280;4187;42.778;23.242;2022-12-19T04:23:47;97125.81;;;0.20;100.00
8298;BME280;4187;42.778;23.242;2022-12-19T04:26:17;97117.50;;;0.07;100.00
8298;BME280;4187;42.778;23.242;2022-12-19T04:28:48;97115.09;;;-0.01;100.00
8298;BME280;4187;42.778;23.242;2022-12-19T04:31:17;97120.34;;;-0.04;100.00
8298;BME280;4187;42.778;23.242;2022-12-19T04:33:46;97127.31;;;-0.06;100.00
8298;BME280;4187;42.778;23.242;2022-12-19T04:36:13;97128.16;;;-0.05;100.00
8298;BME280;4187;42.778;23.242;2022-12-19T04:38:40;97129.06;;;-0.06;100.00
8298;BME280;4187;42.778;23.242;2022-12-19T04:41:07;97136.78;;;-0.03;100.00
8298;BME280;4187;42.778;23.242;2022-12-19T04:43:34;97136.78;;;-0.03;100.00
8298;BME280;4187;42.778;23.242;2022-12-19T04:46:01;97130.06;;;-0.13;100.00
8298;BME280;4187;42.778;23.242;2022-12-19T04:48:27;97086.81;;;-0.49;100.00
8298;BME280;4187;42.778;23.242;2022-12-19T04:50:56;97113.22;;;-0.32;100.00
8298;BME280;4187;42.778;23.242;2022-12-19T04:53:23;97141.53;;;-0.22;100.00
8298;BME280;4187;42.778;23.242;2022-12-19T04:55:49;97078.50;;;-0.64;100.00
8298;BME280;4187;42.778;23.242;2022-12-19T04:58:16;97135.56;;;-0.27;100.00
8298;BME280;4187;42.778;23.242;2022-12-19T05:00:43;97142.44;;;-0.24;100.00
8298;BME280;4187;42.778;23.242;2022-12-19T05:03:10;97120.31;;;-0.39;100.00
8298;BME280;4187;42.778;23.242;2022-12-19T05:05:37;97145.03;;;-0.24;100.00
8298;BME280;4187;42.778;23.242;2022-12-19T05:08:05;97145.06;;;-0.26;100.00
8298;BME280;4187;42.778;23.242;2022-12-19T05:10:32;97142.28;;;-0.17;100.00
8298;BME280;4187;42.778;23.242;2022-12-19T05:12:58;97117.72;;;-0.40;100.00
8298;BME280;4187;42.778;23.242;2022-12-19T05:15:26;97120.31;;;-0.40;100.00
8298;BME280;4187;42.778;23.242;2022-12-19T05:17:53;97149.47;;;-0.29;100.00
8298;BME280;4187;42.778;23.242;2022-12-19T05:20:19;97146.03;;;-0.30;100.00
8298;BME280;4187;42.778;23.242;2022-12-19T05:22:46;97149.63;;;-0.35;100.00
8298;BME280;4187;42.778;23.242;2022-12-19T05:25:14;97149.56;;;-0.34;100.00
8298;BME280;4187;42.778;23.242;2022-12-19T05:27:41;97149.72;;;-0.40;100.00
8298;BME280;4187;42.778;23.242;2022-12-19T05:30:09;97148.03;;;-0.42;100.00
8298;BME280;4187;42.778;23.242;2022-12-19T05:32:36;97157.41;;;-0.35;100.00
8298;BME280;4187;42.778;23.242;2022-12-19T05:35:03;97158.22;;;-0.33;100.00
8298;BME280;4187;42.778;23.242;2022-12-19T05:37:30;97148.84;;;-0.40;100.00
8298;BME280;4187;42.778;23.242;2022-12-19T05:39:57;97151.22;;;-0.30;100.00
8298;BME280;4187;42.778;23.242;2022-12-19T05:42:25;97152.91;;;-0.29;100.00
8298;BME280;4187;42.778;23.242;2022-12-19T05:44:52;97153.97;;;-0.36;100.00
8298;BME280;4187;42.778;23.242;2022-12-19T05:47:19;97158.22;;;-0.33;100.00
8298;BME280;4187;42.778;23.242;2022-12-19T05:49:46;97131.72;;;-0.47;100.00
8298;BME280;4187;42.778;23.242;2022-12-19T05:52:12;97166.63;;;-0.24;100.00
8298;BME280;4187;42.778;23.242;2022-12-19T05:54:39;97167.56;;;-0.26;100.00
8298;BME280;4187;42.778;23.242;2022-12-19T05:57:06;97160.53;;;-0.21;100.00
8298;BME280;4187;42.778;23.242;2022-12-19T05:59:34;97161.38;;;-0.21;100.00
8298;BME280;4187;42.778;23.242;2022-12-19T06:02:01;97144.25;;;-0.28;100.00
8298;BME280;4187;42.778;23.242;2022-12-19T06:04:28;97170.06;;;-0.22;100.00
8298;BME280;4187;42.778;23.242;2022-12-19T06:06:55;97145.94;;;-0.27;100.00
8298;BME280;4187;42.778;23.242;2022-12-19T06:09:26;97164.03;;;-0.24;100.00
8298;BME280;4187;42.778;23.242;2022-12-19T06:11:53;97148.41;;;-0.59;100.00
8298;BME280;4187;42.778;23.242;2022-12-19T06:14:20;97178.97;;;-0.33;100.00
8298;BME280;4187;42.778;23.242;2022-12-19T06:16:48;97151.63;;;-0.48;100.00
8298;BME280;4187;42.778;23.242;2022-12-19T06:19:15;97184.00;;;-0.26;100.00
8298;BME280;4187;42.778;23.242;2022-12-19T06:21:42;97178.66;;;-0.20;100.00
8298;BME280;4187;42.778;23.242;2022-12-19T06:24:09;97174.28;;;-0.18;100.00
8298;BME280;4187;42.778;23.242;2022-12-19T06:26:36;97183.56;;;-0.08;100.00
8298;BME280;4187;42.778;23.242;2022-12-19T06:29:03;97181.59;;;0.04;100.00
8298;BME280;4187;42.778;23.242;2022-12-19T06:31:30;97144.56;;;-0.03;100.00
8298;BME280;4187;42.778;23.242;2022-12-19T06:33:58;97182.00;;;0.22;100.00
8298;BME280;4187;42.778;23.242;2022-12-19T06:36:26;97187.19;;;0.22;100.00
8298;BME280;4187;42.778;23.242;2022-12-19T06:38:56;97186.34;;;0.22;100.00
8298;BME280;4187;42.778;23.242;2022-12-19T06:41:23;97182.19;;;0.16;100.00
8298;BME280;4187;42.778;23.242;2022-12-19T06:44:09;97193.31;;;0.21;100.00
8298;BME280;4187;42.778;23.242;2022-12-19T06:46:37;97196.97;;;0.13;100.00
8298;BME280;4187;42.778;23.242;2022-12-19T06:49:05;97198.66;;;0.14;100.00
8298;BME280;4187;42.778;23.242;2022-12-19T06:51:32;97201.34;;;0.09;100.00
8298;BME280;4187;42.778;23.242;2022-12-19T06:54:00;97185.97;;;0.02;100.00
8298;BME280;4187;42.778;23.242;2022-12-19T06:56:26;97202.34;;;0.04;100.00
8298;BME280;4187;42.778;23.242;2022-12-19T06:58:53;97216.06;;;0.09;100.00
8298;BME280;4187;42.778;23.242;2022-12-19T07:01:23;97213.47;;;0.10;100.00
8298;BME280;4187;42.778;23.242;2022-12-19T07:03:56;97193.50;;;0.12;100.00
8298;BME280;4187;42.778;23.242;2022-12-19T07:06:24;97226.13;;;0.24;100.00
8298;BME280;4187;42.778;23.242;2022-12-19T07:08:51;97205.97;;;0.35;100.00
8298;BME280;4187;42.778;23.242;2022-12-19T07:11:18;97208.22;;;1.14;100.00
8298;BME280;4187;42.778;23.242;2022-12-19T07:13:45;97212.38;;;1.22;100.00
8298;BME280;4187;42.778;23.242;2022-12-19T07:16:12;97206.03;;;0.99;100.00
8298;BME280;4187;42.778;23.242;2022-12-19T07:18:39;97235.31;;;1.06;100.00
8298;BME280;4187;42.778;23.242;2022-12-19T07:21:08;97232.84;;;1.01;100.00
8298;BME280;4187;42.778;23.242;2022-12-19T07:23:38;97215.78;;;0.91;100.00
8298;BME280;4187;42.778;23.242;2022-12-19T07:26:05;97236.50;;;0.94;100.00
8298;BME280;4187;42.778;23.242;2022-12-19T07:28:33;97235.81;;;0.88;100.00
8298;BME280;4187;42.778;23.242;2022-12-19T07:31:00;97247.06;;;0.88;100.00
8298;BME280;4187;42.778;23.242;2022-12-19T07:33:27;97243.59;;;0.88;100.00
8298;BME280;4187;42.778;23.242;2022-12-19T07:35:54;97253.13;;;0.87;100.00
8298;BME280;4187;42.778;23.242;2022-12-19T07:38:21;97249.00;;;0.80;100.00
8298;BME280;4187;42.778;23.242;2022-12-19T07:40:49;97254.88;;;0.87;100.00
8298;BME280;4187;42.778;23.242;2022-12-19T07:43:16;97223.28;;;0.70;100.00
8298;BME280;4187;42.778;23.242;2022-12-19T07:45:43;97263.53;;;0.87;100.00
8298;BME280;4187;42.778;23.242;2022-12-19T07:48:09;97243.94;;;0.74;100.00
8298;BME280;4187;42.778;23.242;2022-12-19T07:50:36;97266.94;;;0.89;100.00
8298;BME280;4187;42.778;23.242;2022-12-19T07:53:03;97268.53;;;0.95;100.00
8298;BME280;4187;42.778;23.242;2022-12-19T07:55:30;97266.78;;;0.95;100.00
8298;BME280;4187;42.778;23.242;2022-12-19T07:57:59;97273.06;;;0.87;100.00
8298;BME280;4187;42.778;23.242;2022-12-19T08:00:26;97281.84;;;0.83;100.00
8298;BME280;4187;42.778;23.242;2022-12-19T08:02:53;97279.94;;;0.89;100.00
8298;BME280;4187;42.778;23.242;2022-12-19T08:05:19;97276.34;;;0.95;100.00
8298;BME280;4187;42.778;23.242;2022-12-19T08:07:46;97277.94;;;1.00;100.00
8298;BME280;4187;42.778;23.242;2022-12-19T08:10:13;97280.38;;;1.06;100.00
8298;BME280;4187;42.778;23.242;2022-12-19T08:12:40;97284.56;;;1.13;100.00
8298;BME280;4187;42.778;23.242;2022-12-19T08:15:09;97274.16;;;1.12;100.00
8298;BME280;4187;42.778;23.242;2022-12-19T08:17:36;97291.00;;;1.31;100.00
8298;BME280;4187;42.778;23.242;2022-12-19T08:20:05;97288.41;;;1.31;100.00
8298;BME280;4187;42.778;23.242;2022-12-19T08:22:32;97292.59;;;1.37;100.00
8298;BME280;4187;42.778;23.242;2022-12-19T08:24:59;97288.84;;;1.47;100.00
8298;BME280;4187;42.778;23.242;2022-12-19T08:27:26;97290.41;;;1.54;100.00
8298;BME280;4187;42.778;23.242;2022-12-19T08:29:54;97251.66;;;1.43;100.00
8298;BME280;4187;42.778;23.242;2022-12-19T08:32:24;97253.22;;;1.49;100.00
8298;BME280;4187;42.778;23.242;2022-12-19T08:34:51;97297.63;;;1.75;100.00
8298;BME280;4187;42.778;23.242;2022-12-19T08:37:19;97287.06;;;1.79;100.00
8298;BME280;4187;42.778;23.242;2022-12-19T08:39:46;97275.63;;;1.85;100.00
8298;BME280;4187;42.778;23.242;2022-12-19T08:42:12;97285.56;;;2.02;100.00
8298;BME280;4187;42.778;23.242;2022-12-19T08:44:39;97284.69;;;2.03;100.00
8298;BME280;4187;42.778;23.242;2022-12-19T08:47:06;97281.84;;;2.10;100.00
8298;BME280;4187;42.778;23.242;2022-12-19T08:49:35;97279.16;;;2.13;100.00
8298;BME280;4187;42.778;23.242;2022-12-19T08:52:02;97235.31;;;1.98;100.00
8298;BME280;4187;42.778;23.242;2022-12-19T08:54:29;97247.91;;;2.13;100.00
8298;BME280;4187;42.778;23.242;2022-12-19T08:56:56;97275.22;;;2.28;100.00
8298;BME280;4187;42.778;23.242;2022-12-19T08:59:23;97276.00;;;2.30;100.00
8298;BME280;4187;42.778;23.242;2022-12-19T09:01:50;97274.25;;;2.32;100.00
8298;BME280;4187;42.778;23.242;2022-12-19T09:04:17;97268.09;;;2.33;100.00
8298;BME280;4187;42.778;23.242;2022-12-19T09:06:45;97270.69;;;2.34;100.00
8298;BME280;4187;42.778;23.242;2022-12-19T09:09:12;97266.22;;;2.38;100.00
8298;BME280;4187;42.778;23.242;2022-12-19T09:11:38;97255.06;;;2.34;100.00
8298;BME280;4187;42.778;23.242;2022-12-19T09:14:05;97259.00;;;2.46;100.00
8298;BME280;4187;42.778;23.242;2022-12-19T09:16:32;97258.31;;;2.41;100.00
8298;BME280;4187;42.778;23.242;2022-12-19T09:18:59;97259.06;;;2.45;100.00
8298;BME280;4187;42.778;23.242;2022-12-19T09:21:27;97247.00;;;2.42;100.00
8298;BME280;4187;42.778;23.242;2022-12-19T09:23:57;97244.22;;;2.47;100.00
8298;BME280;4187;42.778;23.242;2022-12-19T09:26:26;97239.97;;;2.44;100.00
8298;BME280;4187;42.778;23.242;2022-12-19T09:28:53;97242.66;;;2.41;100.00
8298;BME280;4187;42.778;23.242;2022-12-19T09:31:22;97230.41;;;2.45;100.00
8298;BME280;4187;42.778;23.242;2022-12-19T09:33:49;97236.41;;;2.47;100.00
8298;BME280;4187;42.778;23.242;2022-12-19T09:36:19;97219.22;;;2.41;100.00
8298;BME280;4187;42.778;23.242;2022-12-19T09:38:46;97222.84;;;2.37;100.00
8298;BME280;4187;42.778;23.242;2022-12-19T09:44:17;97221.28;;;2.84;100.00
8298;BME280;4187;42.778;23.242;2022-12-19T09:46:51;97228.78;;;2.94;100.00
8298;BME280;4187;42.778;23.242;2022-12-19T09:49:22;97224.28;;;2.98;100.00
8298;BME280;4187;42.778;23.242;2022-12-19T09:51:56;97214.69;;;3.00;100.00
8298;BME280;4187;42.778;23.242;2022-12-19T09:54:29;97223.41;;;2.99;100.00
8298;BME280;4187;42.778;23.242;2022-12-19T09:57:02;97215.28;;;3.08;100.00
8298;BME280;4187;42.778;23.242;2022-12-19T09:59:34;97209.75;;;2.91;100.00
8298;BME280;4187;42.778;23.242;2022-12-19T10:02:25;97207.84;;;2.96;100.00
8298;BME280;4187;42.778;23.242;2022-12-19T10:05:02;97217.88;;;3.08;100.00
8298;BME280;4187;42.778;23.242;2022-12-19T10:07:29;97211.81;;;3.08;100.00
8298;BME280;4187;42.778;23.242;2022-12-19T10:09:56;97213.34;;;3.13;100.00
8298;BME280;4187;42.778;23.242;2022-12-19T10:12:41;97203.59;;;3.18;100.00
8298;BME280;4187;42.778;23.242;2022-12-19T10:15:14;97145.94;;;3.01;100.00
8298;BME280;4187;42.778;23.242;2022-12-19T10:18:01;97193.00;;;3.23;100.00
8298;BME280;4187;42.778;23.242;2022-12-19T10:20:34;97190.28;;;3.26;100.00
8298;BME280;4187;42.778;23.242;2022-12-19T10:23:15;97190.88;;;3.34;100.00
8298;BME280;4187;42.778;23.242;2022-12-19T10:25:50;97183.88;;;3.34;100.00
8298;BME280;4187;42.778;23.242;2022-12-19T10:28:36;97179.34;;;3.39;100.00
8298;BME280;4187;42.778;23.242;2022-12-19T10:31:13;97181.97;;;3.39;100.00
8298;BME280;4187;42.778;23.242;2022-12-19T10:33:44;97173.09;;;3.43;100.00
8298;BME280;4187;42.778;23.242;2022-12-19T10:36:13;97116.34;;;3.27;100.00
8298;BME280;4187;42.778;23.242;2022-12-19T10:38:46;97167.03;;;3.66;100.00
8298;BME280;4187;42.778;23.242;2022-12-19T10:41:18;97140.38;;;3.58;100.00
8298;BME280;4187;42.778;23.242;2022-12-19T10:43:53;97143.03;;;3.80;100.00
8298;BME280;4187;42.778;23.242;2022-12-19T10:46:33;97161.81;;;4.11;100.00
8298;BME280;4187;42.778;23.242;2022-12-19T10:49:09;97127.94;;;4.09;100.00
8298;BME280;4187;42.778;23.242;2022-12-19T10:51:37;97155.06;;;4.49;100.00
8298;BME280;4187;42.778;23.242;2022-12-19T10:54:05;97152.63;;;4.66;100.00
8298;BME280;4187;42.778;23.242;2022-12-19T10:56:32;97152.94;;;4.58;100.00
8298;BME280;4187;42.778;23.242;2022-12-19T10:59:01;97146.34;;;4.70;100.00
8298;BME280;4187;42.778;23.242;2022-12-19T11:01:28;97126.88;;;4.77;100.00
8298;BME280;4187;42.778;23.242;2022-12-19T11:04:13;97127.59;;;4.80;100.00
8298;BME280;4187;42.778;23.242;2022-12-19T11:06:48;97135.41;;;5.01;100.00
8298;BME280;4187;42.778;23.242;2022-12-19T11:09:24;97138.56;;;5.09;100.00
8298;BME280;4187;42.778;23.242;2022-12-19T11:11:59;97140.16;;;5.13;100.00
8298;BME280;4187;42.778;23.242;2022-12-19T11:14:30;97141.50;;;5.01;100.00
8298;BME280;4187;42.778;23.242;2022-12-19T11:16:57;97146.56;;;4.86;100.00
8298;BME280;4187;42.778;23.242;2022-12-19T11:19:27;97140.09;;;4.94;100.00
8298;BME280;4187;42.778;23.242;2022-12-19T11:21:57;97138.00;;;5.02;100.00
8298;BME280;4187;42.778;23.242;2022-12-19T11:24:28;97136.41;;;4.98;100.00
8298;BME280;4187;42.778;23.242;2022-12-19T11:26:56;97140.63;;;5.02;100.00
8298;BME280;4187;42.778;23.242;2022-12-19T11:29:26;97136.28;;;5.01;100.00
8298;BME280;4187;42.778;23.242;2022-12-19T11:31:57;97110.19;;;4.79;100.00
8298;BME280;4187;42.778;23.242;2022-12-19T11:34:26;97108.63;;;4.75;100.00
8298;BME280;4187;42.778;23.242;2022-12-19T11:36:59;97130.72;;;4.89;100.00
8298;BME280;4187;42.778;23.242;2022-12-19T11:39:32;97125.09;;;4.98;100.00
8298;BME280;4187;42.778;23.242;2022-12-19T11:42:05;97101.97;;;4.89;100.00
8298;BME280;4187;42.778;23.242;2022-12-19T11:44:38;97113.78;;;4.97;100.00
8298;BME280;4187;42.778;23.242;2022-12-19T11:47:16;97128.75;;;4.94;100.00
8298;BME280;4187;42.778;23.242;2022-12-19T11:49:50;97130.00;;;4.85;100.00
8298;BME280;4187;42.778;23.242;2022-12-19T11:52:27;97088.78;;;4.50;100.00
8298;BME280;4187;42.778;23.242;2022-12-19T11:55:02;97127.00;;;4.74;100.00
8298;BME280;4187;42.778;23.242;2022-12-19T11:57:32;97115.97;;;4.67;100.00
8298;BME280;4187;42.778;23.242;2022-12-19T11:59:58;97121.84;;;4.72;100.00
8298;BME280;4187;42.778;23.242;2022-12-19T12:02:54;97095.59;;;4.74;100.00
8298;BME280;4187;42.778;23.242;2022-12-19T12:05:41;97112.47;;;4.87;100.00
8298;BME280;4187;42.778;23.242;2022-12-19T12:08:36;97119.06;;;5.73;100.00
8298;BME280;4187;42.778;23.242;2022-12-19T12:11:18;97117.66;;;5.66;100.00
8298;BME280;4187;42.778;23.242;2022-12-19T12:14:00;97111.66;;;7.06;100.00
8298;BME280;4187;42.778;23.242;2022-12-19T12:16:38;97089.00;;;6.53;100.00
8298;BME280;4187;42.778;23.242;2022-12-19T12:19:18;97086.81;;;6.96;100.00
8298;BME280;4187;42.778;23.242;2022-12-19T12:21:58;97043.41;;;6.03;100.00
8298;BME280;4187;42.778;23.242;2022-12-19T12:24:40;97127.84;;;6.10;100.00
8298;BME280;4187;42.778;23.242;2022-12-19T12:27:22;97113.31;;;5.65;100.00
8298;BME280;4187;42.778;23.242;2022-12-19T12:29:59;97095.91;;;5.27;100.00
8298;BME280;4187;42.778;23.242;2022-12-19T12:32:42;97122.22;;;5.24;100.00
8298;BME280;4187;42.778;23.242;2022-12-19T12:35:22;97128.22;;;5.06;100.00
8298;BME280;4187;42.778;23.242;2022-12-19T12:37:58;97138.84;;;5.03;100.00
8298;BME280;4187;42.778;23.242;2022-12-19T12:40:52;97123.66;;;4.91;100.00
8298;BME280;4187;42.778;23.242;2022-12-19T12:43:32;97121.72;;;4.75;100.00
8298;BME280;4187;42.778;23.242;2022-12-19T12:46:02;97125.88;;;4.79;100.00
8298;BME280;4187;42.778;23.242;2022-12-19T12:48:33;97120.84;;;4.75;100.00
8298;BME280;4187;42.778;23.242;2022-12-19T12:51:05;97113.63;;;4.60;100.00
8298;BME280;4187;42.778;23.242;2022-12-19T12:53:37;97116.53;;;4.54;100.00
8298;BME280;4187;42.778;23.242;2022-12-19T12:56:08;97090.97;;;4.40;100.00
8298;BME280;4187;42.778;23.242;2022-12-19T12:58:49;97117.88;;;4.62;100.00
8298;BME280;4187;42.778;23.242;2022-12-19T13:01:33;97121.31;;;4.64;100.00
8298;BME280;4187;42.778;23.242;2022-12-19T13:04:03;97126.59;;;4.63;100.00
8298;BME280;4187;42.778;23.242;2022-12-19T13:06:34;97125.59;;;4.65;100.00
8298;BME280;4187;42.778;23.242;2022-12-19T13:09:04;97127.81;;;4.54;100.00
8298;BME280;4187;42.778;23.242;2022-12-19T13:11:46;97129.19;;;4.43;100.00
8298;BME280;4187;42.778;23.242;2022-12-19T13:14:43;97117.91;;;4.41;100.00
8298;BME280;4187;42.778;23.242;2022-12-19T13:17:11;97129.44;;;4.37;100.00
8298;BME280;4187;42.778;23.242;2022-12-19T13:19:52;97132.91;;;4.37;100.00
8298;BME280;4187;42.778;23.242;2022-12-19T13:22:36;97115.41;;;4.17;100.00
8298;BME280;4187;42.778;23.242;2022-12-19T13:28:35;97137.03;;;4.21;100.00
8298;BME280;4187;42.778;23.242;2022-12-19T13:31:15;97132.78;;;4.18;100.00
8298;BME280;4187;42.778;23.242;2022-12-19T13:36:54;97157.28;;;4.16;100.00
8298;BME280;4187;42.778;23.242;2022-12-19T13:39:31;97140.38;;;4.03;100.00
8298;BME280;4187;42.778;23.242;2022-12-19T13:42:10;97144.50;;;4.08;100.00